sensor_id;sensor_type;location;lat;lon;timestamp;temperature;humidity
53272;DHT22;39160;48.580;7.756;2023-05-17T08:04:50;12.30;99.90
53272;DHT22;39160;48.580;7.756;2023-05-17T08:09:40;12.40;99.90
53272;DHT22;39160;48.580;7.756;2023-05-17T08:14:33;12.30;99.90
53272;DHT22;39160;48.580;7.756;2023-05-17T08:19:24;12.50;99.90
53272;DHT22;39160;48.580;7.756;2023-05-17T08:24:16;12.50;99.70
53272;DHT22;39160;48.580;7.756;2023-05-17T08:29:07;12.60;99.60
53272;DHT22;39160;48.580;7.756;2023-05-17T08:33:57;13.00;99.50
53272;DHT22;39160;48.580;7.756;2023-05-17T08:38:48;13.10;99.40
53272;DHT22;39160;48.580;7.756;2023-05-17T08:43:39;13.20;99.20
53272;DHT22;39160;48.580;7.756;2023-05-17T08:48:31;13.30;99.20
53272;DHT22;39160;48.580;7.756;2023-05-17T08:53:25;13.50;99.00
53272;DHT22;39160;48.580;7.756;2023-05-17T08:58:20;13.70;98.70
53272;DHT22;39160;48.580;7.756;2023-05-17T09:03:15;13.80;98.40
53272;DHT22;39160;48.580;7.756;2023-05-17T09:08:07;14.00;98.40
53272;DHT22;39160;48.580;7.756;2023-05-17T09:13:03;14.30;98.00
53272;DHT22;39160;48.580;7.756;2023-05-17T09:17:54;14.70;98.20
53272;DHT22;39160;48.580;7.756;2023-05-17T09:22:47;14.80;98.10
53272;DHT22;39160;48.580;7.756;2023-05-17T09:27:38;14.90;97.90
53272;DHT22;39160;48.580;7.756;2023-05-17T09:32:29;14.70;97.80
53272;DHT22;39160;48.580;7.756;2023-05-17T09:37:19;14.30;97.80
53272;DHT22;39160;48.580;7.756;2023-05-17T09:42:14;14.00;97.70
53272;DHT22;39160;48.580;7.756;2023-05-17T09:47:06;13.80;97.60
53272;DHT22;39160;48.580;7.756;2023-05-17T09:51:56;13.70;97.60
53272;DHT22;39160;48.580;7.756;2023-05-17T09:56:53;14.00;97.40
53272;DHT22;39160;48.580;7.756;2023-05-17T10:01:44;14.20;97.30
53272;DHT22;39160;48.580;7.756;2023-05-17T10:06:37;14.30;97.10
53272;DHT22;39160;48.580;7.756;2023-05-17T10:11:31;14.00;97.20
53272;DHT22;39160;48.580;7.756;2023-05-17T10:16:25;14.20;97.10
53272;DHT22;39160;48.580;7.756;2023-05-17T10:21:16;14.40;97.10
53272;DHT22;39160;48.580;7.756;2023-05-17T10:26:07;14.60;97.00
53272;DHT22;39160;48.580;7.756;2023-05-17T10:30:58;15.00;96.90
53272;DHT22;39160;48.580;7.756;2023-05-17T10:35:55;15.40;96.80
53272;DHT22;39160;48.580;7.756;2023-05-17T10:40:46;15.90;96.60
53272;DHT22;39160;48.580;7.756;2023-05-17T10:45:37;16.00;96.50
53272;DHT22;39160;48.580;7.756;2023-05-17T10:50:30;16.00;96.30
53272;DHT22;39160;48.580;7.756;2023-05-17T10:55:22;15.80;96.20
53272;DHT22;39160;48.580;7.756;2023-05-17T11:00:19;15.60;96.10
53272;DHT22;39160;48.580;7.756;2023-05-17T11:05:22;15.80;96.00
53272;DHT22;39160;48.580;7.756;2023-05-17T11:10:14;16.20;95.70
53272;DHT22;39160;48.580;7.756;2023-05-17T11:15:11;16.00;95.60
53272;DHT22;39160;48.580;7.756;2023-05-17T11:20:04;16.20;95.30
53272;DHT22;39160;48.580;7.756;2023-05-17T11:24:56;16.20;95.20
53272;DHT22;39160;48.580;7.756;2023-05-17T11:29:47;16.30;95.10
53272;DHT22;39160;48.580;7.756;2023-05-17T11:34:38;16.40;94.80
53272;DHT22;39160;48.580;7.756;2023-05-17T11:39:29;16.50;94.70
53272;DHT22;39160;48.580;7.756;2023-05-17T11:49:16;16.10;93.80
53272;DHT22;39160;48.580;7.756;2023-05-17T11:54:08;16.00;93.90
53272;DHT22;39160;48.580;7.756;2023-05-17T11:59:00;16.20;93.80
53272;DHT22;39160;48.580;7.756;2023-05-17T12:03:55;15.70;93.60
53272;DHT22;39160;48.580;7.756;2023-05-17T12:08:49;15.30;93.60
53272;DHT22;39160;48.580;7.756;2023-05-17T12:13:39;15.10;93.80
53272;DHT22;39160;48.580;7.756;2023-05-17T12:18:39;15.00;93.80
53272;DHT22;39160;48.580;7.756;2023-05-17T12:23:32;15.10;93.70
53272;DHT22;39160;48.580;7.756;2023-05-17T12:28:23;15.50;93.60
53272;DHT22;39160;48.580;7.756;2023-05-17T12:33:14;15.80;93.60
53272;DHT22;39160;48.580;7.756;2023-05-17T12:38:05;15.80;93.50
53272;DHT22;39160;48.580;7.756;2023-05-17T12:43:02;15.80;93.50
53272;DHT22;39160;48.580;7.756;2023-05-17T12:47:53;16.10;93.50
53272;DHT22;39160;48.580;7.756;2023-05-17T12:52:44;16.50;93.50
53272;DHT22;39160;48.580;7.756;2023-05-17T12:57:34;16.50;93.20
53272;DHT22;39160;48.580;7.756;2023-05-17T13:02:25;16.40;93.20
53272;DHT22;39160;48.580;7.756;2023-05-17T13:07:22;16.10;93.20
53272;DHT22;39160;48.580;7.756;2023-05-17T13:12:23;16.10;93.30
53272;DHT22;39160;48.580;7.756;2023-05-17T13:17:22;16.50;93.10
53272;DHT22;39160;48.580;7.756;2023-05-17T13:22:13;16.70;93.00
53272;DHT22;39160;48.580;7.756;2023-05-17T13:27:05;16.70;92.90
53272;DHT22;39160;48.580;7.756;2023-05-17T13:31:56;16.60;92.90
53272;DHT22;39160;48.580;7.756;2023-05-17T13:36:47;16.40;92.60
53272;DHT22;39160;48.580;7.756;2023-05-17T13:41:38;16.60;92.40
53272;DHT22;39160;48.580;7.756;2023-05-17T13:46:30;17.00;92.20
53272;DHT22;39160;48.580;7.756;2023-05-17T13:51:20;17.90;92.00
53272;DHT22;39160;48.580;7.756;2023-05-17T13:56:11;18.50;91.30
53272;DHT22;39160;48.580;7.756;2023-05-17T14:01:01;19.80;91.20
53272;DHT22;39160;48.580;7.756;2023-05-17T14:05:52;19.60;90.40
53272;DHT22;39160;48.580;7.756;2023-05-17T14:10:43;19.60;90.40
53272;DHT22;39160;48.580;7.756;2023-05-17T14:15:34;19.90;90.30
53272;DHT22;39160;48.580;7.756;2023-05-17T14:20:27;20.50;89.90
53272;DHT22;39160;48.580;7.756;2023-05-17T14:25:18;22.30;88.70
53272;DHT22;39160;48.580;7.756;2023-05-17T14:30:09;21.00;88.50
53272;DHT22;39160;48.580;7.756;2023-05-17T14:34:59;19.70;88.90
53272;DHT22;39160;48.580;7.756;2023-05-17T14:39:50;21.70;86.80
53272;DHT22;39160;48.580;7.756;2023-05-17T14:44:41;23.20;84.20
53272;DHT22;39160;48.580;7.756;2023-05-17T14:49:31;23.40;83.10
53272;DHT22;39160;48.580;7.756;2023-05-17T14:54:22;23.00;82.90
53272;DHT22;39160;48.580;7.756;2023-05-17T14:59:14;22.90;81.00
53272;DHT22;39160;48.580;7.756;2023-05-17T15:04:05;22.00;81.70
53272;DHT22;39160;48.580;7.756;2023-05-17T15:08:56;22.90;79.20
53272;DHT22;39160;48.580;7.756;2023-05-17T15:13:47;23.50;77.50
53272;DHT22;39160;48.580;7.756;2023-05-17T15:18:38;23.30;76.00
53272;DHT22;39160;48.580;7.756;2023-05-17T15:23:29;23.20;74.60
53272;DHT22;39160;48.580;7.756;2023-05-17T15:28:20;24.20;74.40
53272;DHT22;39160;48.580;7.756;2023-05-17T15:33:12;23.00;73.50
53272;DHT22;39160;48.580;7.756;2023-05-17T15:38:03;21.80;73.90
53272;DHT22;39160;48.580;7.756;2023-05-17T15:42:57;23.30;72.50
53272;DHT22;39160;48.580;7.756;2023-05-17T15:47:47;24.50;70.80
53272;DHT22;39160;48.580;7.756;2023-05-17T15:52:38;25.70;69.00
53272;DHT22;39160;48.580;7.756;2023-05-17T15:57:29;25.70;68.10
53272;DHT22;39160;48.580;7.756;2023-05-17T16:02:20;25.70;66.10
53272;DHT22;39160;48.580;7.756;2023-05-17T16:07:10;26.20;65.70
53272;DHT22;39160;48.580;7.756;2023-05-17T16:12:01;26.60;64.00
53272;DHT22;39160;48.580;7.756;2023-05-17T16:16:52;28.20;62.50
53272;DHT22;39160;48.580;7.756;2023-05-17T16:21:42;28.20;59.90
53272;DHT22;39160;48.580;7.756;2023-05-17T16:26:34;29.00;59.50
53272;DHT22;39160;48.580;7.756;2023-05-17T16:31:25;27.40;60.20
53272;DHT22;39160;48.580;7.756;2023-05-17T16:36:16;28.40;58.20
53272;DHT22;39160;48.580;7.756;2023-05-17T16:41:07;29.00;57.40
53272;DHT22;39160;48.580;7.756;2023-05-17T16:45:57;29.60;56.70
53272;DHT22;39160;48.580;7.756;2023-05-17T16:50:48;29.40;55.90
53272;DHT22;39160;48.580;7.756;2023-05-17T16:55:39;29.10;56.00
53272;DHT22;39160;48.580;7.756;2023-05-17T17:00:30;29.20;55.50
53272;DHT22;39160;48.580;7.756;2023-05-17T17:05:20;29.20;55.30
53272;DHT22;39160;48.580;7.756;2023-05-17T17:10:11;29.00;55.00
53272;DHT22;39160;48.580;7.756;2023-05-17T17:15:02;28.60;54.90
53272;DHT22;39160;48.580;7.756;2023-05-17T17:19:52;27.70;55.00
53272;DHT22;39160;48.580;7.756;2023-05-17T17:24:43;27.40;55.00
53272;DHT22;39160;48.580;7.756;2023-05-17T17:29:34;24.00;57.60
53272;DHT22;39160;48.580;7.756;2023-05-17T17:34:24;23.50;57.30
53272;DHT22;39160;48.580;7.756;2023-05-17T17:39:15;24.60;56.20
53272;DHT22;39160;48.580;7.756;2023-05-17T17:44:06;23.80;56.70
53272;DHT22;39160;48.580;7.756;2023-05-17T17:48:57;22.10;58.10
53272;DHT22;39160;48.580;7.756;2023-05-17T17:53:47;20.70;59.20
53272;DHT22;39160;48.580;7.756;2023-05-17T17:58:38;19.70;59.80
53272;DHT22;39160;48.580;7.756;2023-05-17T18:03:29;19.00;60.20
53272;DHT22;39160;48.580;7.756;2023-05-17T18:08:20;18.70;60.20
53272;DHT22;39160;48.580;7.756;2023-05-17T18:13:10;18.60;60.10
53272;DHT22;39160;48.580;7.756;2023-05-17T18:18:01;18.50;60.30
53272;DHT22;39160;48.580;7.756;2023-05-17T18:22:52;18.50;60.40
53272;DHT22;39160;48.580;7.756;2023-05-17T18:27:43;18.50;60.50
53272;DHT22;39160;48.580;7.756;2023-05-17T18:32:33;18.50;60.60
53272;DHT22;39160;48.580;7.756;2023-05-17T18:37:24;18.30;61.10
53272;DHT22;39160;48.580;7.756;2023-05-17T18:42:15;18.10;61.60
53272;DHT22;39160;48.580;7.756;2023-05-17T18:47:05;18.10;62.40
53272;DHT22;39160;48.580;7.756;2023-05-17T18:51:57;17.80;62.50
53272;DHT22;39160;48.580;7.756;2023-05-17T18:56:47;17.70;62.60
53272;DHT22;39160;48.580;7.756;2023-05-17T19:01:38;17.60;63.00
53272;DHT22;39160;48.580;7.756;2023-05-17T19:06:29;17.50;63.20
53272;DHT22;39160;48.580;7.756;2023-05-17T19:11:21;17.50;63.50
53272;DHT22;39160;48.580;7.756;2023-05-17T19:16:12;17.40;63.80
53272;DHT22;39160;48.580;7.756;2023-05-17T19:21:04;17.30;64.20
53272;DHT22;39160;48.580;7.756;2023-05-17T19:25:56;17.30;64.30
53272;DHT22;39160;48.580;7.756;2023-05-17T19:30:46;17.20;64.80
53272;DHT22;39160;48.580;7.756;2023-05-17T19:35:37;17.10;65.00
53272;DHT22;39160;48.580;7.756;2023-05-17T19:40:29;17.00;65.40
53272;DHT22;39160;48.580;7.756;2023-05-17T19:45:20;16.90;65.50
53272;DHT22;39160;48.580;7.756;2023-05-17T19:50:11;16.90;65.60
53272;DHT22;39160;48.580;7.756;2023-05-17T19:55:02;16.80;66.20
53272;DHT22;39160;48.580;7.756;2023-05-17T19:59:53;16.70;66.60
53272;DHT22;39160;48.580;7.756;2023-05-17T20:04:43;16.60;66.90
53272;DHT22;39160;48.580;7.756;2023-05-17T20:09:34;16.50;67.00
53272;DHT22;39160;48.580;7.756;2023-05-17T20:14:26;16.30;67.60
53272;DHT22;39160;48.580;7.756;2023-05-17T20:19:16;16.30;68.00
53272;DHT22;39160;48.580;7.756;2023-05-17T20:24:07;16.20;68.20
53272;DHT22;39160;48.580;7.756;2023-05-17T20:28:58;16.20;68.60
53272;DHT22;39160;48.580;7.756;2023-05-17T20:33:49;16.10;68.70
53272;DHT22;39160;48.580;7.756;2023-05-17T20:38:41;16.00;68.80
53272;DHT22;39160;48.580;7.756;2023-05-17T20:43:33;16.00;69.30
53272;DHT22;39160;48.580;7.756;2023-05-17T20:48:24;15.90;69.30
53272;DHT22;39160;48.580;7.756;2023-05-17T20:53:15;15.80;69.70
53272;DHT22;39160;48.580;7.756;2023-05-17T20:58:05;15.80;70.10
53272;DHT22;39160;48.580;7.756;2023-05-17T21:02:57;15.60;70.40
53272;DHT22;39160;48.580;7.756;2023-05-17T21:07:48;15.70;70.70
53272;DHT22;39160;48.580;7.756;2023-05-17T21:12:39;15.80;70.90
53272;DHT22;39160;48.580;7.756;2023-05-17T21:17:30;15.90;71.30
53272;DHT22;39160;48.580;7.756;2023-05-17T21:22:20;15.60;71.30
53272;DHT22;39160;48.580;7.756;2023-05-17T21:27:11;15.40;71.90
53272;DHT22;39160;48.580;7.756;2023-05-17T21:32:02;15.30;72.50
53272;DHT22;39160;48.580;7.756;2023-05-17T21:36:54;15.30;73.00
53272;DHT22;39160;48.580;7.756;2023-05-17T21:41:45;15.30;73.30
53272;DHT22;39160;48.580;7.756;2023-05-17T21:46:35;15.30;73.60
53272;DHT22;39160;48.580;7.756;2023-05-17T21:51:26;15.20;73.80
53272;DHT22;39160;48.580;7.756;2023-05-17T21:56:16;15.10;74.10
53272;DHT22;39160;48.580;7.756;2023-05-17T22:01:07;15.10;74.40
53272;DHT22;39160;48.580;7.756;2023-05-17T22:05:58;15.00;74.90
53272;DHT22;39160;48.580;7.756;2023-05-17T22:10:49;14.80;75.30
53272;DHT22;39160;48.580;7.756;2023-05-17T22:15:40;14.70;75.70
53272;DHT22;39160;48.580;7.756;2023-05-17T22:20:30;14.70;76.10
53272;DHT22;39160;48.580;7.756;2023-05-17T22:25:21;14.60;76.40
53272;DHT22;39160;48.580;7.756;2023-05-17T22:30:12;14.60;76.70
53272;DHT22;39160;48.580;7.756;2023-05-17T22:35:03;14.50;77.00
53272;DHT22;39160;48.580;7.756;2023-05-17T22:39:53;14.40;77.50
53272;DHT22;39160;48.580;7.756;2023-05-17T22:44:44;14.30;78.00
53272;DHT22;39160;48.580;7.756;2023-05-17T22:49:35;14.30;78.20
53272;DHT22;39160;48.580;7.756;2023-05-17T22:54:26;14.10;78.60
53272;DHT22;39160;48.580;7.756;2023-05-17T22:59:16;14.10;79.10
53272;DHT22;39160;48.580;7.756;2023-05-17T23:04:07;13.90;79.40
53272;DHT22;39160;48.580;7.756;2023-05-17T23:08:57;14.00;79.50
53272;DHT22;39160;48.580;7.756;2023-05-17T23:13:49;13.90;80.10
53272;DHT22;39160;48.580;7.756;2023-05-17T23:18:40;13.60;80.70
53272;DHT22;39160;48.580;7.756;2023-05-17T23:23:30;13.40;81.50
53272;DHT22;39160;48.580;7.756;2023-05-17T23:28:24;13.50;81.60
53272;DHT22;39160;48.580;7.756;2023-05-17T23:33:14;13.30;82.20
53272;DHT22;39160;48.580;7.756;2023-05-17T23:38:05;13.10;83.00
53272;DHT22;39160;48.580;7.756;2023-05-17T23:42:56;13.00;83.30
53272;DHT22;39160;48.580;7.756;2023-05-17T23:47:47;12.90;83.40
53272;DHT22;39160;48.580;7.756;2023-05-17T23:52:39;12.90;83.80
53272;DHT22;39160;48.580;7.756;2023-05-17T23:57:29;12.80;84.20
